Delavan, Minnesota
Current Conditions -  °F | °C
As of 7:15 AM on Thursday 30 Oct 2014 (Local Time) from KFRM Reporting Station
Overcast Overcast  
Wind Chill: 41°   Ceiling: 7500
Heat Index: 41°   Visibility: 10mi
Dew Point: 32°   Wind: 3mph
Humidity: 70%   Direction: 150°SSE
Pressure: 30.01"   Gusts: NA
Location:  43.77°N, 94.02°W
Report Text: KFRM 301215Z AUTO 15003KT 10SM OVC075 05/00 A3001 RMK AO1
Loading
Personal Weather Stations






























Interactive Weather Map
Tropical Storm Tracking
New forecast layout! Learn more

10-Day Weather Forecast

Advertisements
Track Severe Weather on mobile